createdAt,value
2018-06-12T01:06:39.357Z,99.33
2018-06-12T01:07:39.219Z,99.57
2018-06-12T01:08:39.272Z,99.10
2018-06-12T01:09:40.146Z,99.57
2018-06-12T01:10:39.073Z,99.19
2018-06-12T01:11:39.181Z,99.76
2018-06-12T01:12:39.023Z,99.24
2018-06-12T01:13:39.081Z,99.86
2018-06-12T01:14:38.956Z,99.86
2018-06-12T01:15:39.068Z,99.48
2018-06-12T01:16:38.920Z,99.57
2018-06-12T01:17:38.986Z,99.19
2018-06-12T01:19:53.201Z,98.95
2018-06-12T01:20:53.178Z,98.90
2018-06-12T01:21:53.143Z,98.61
2018-06-12T01:22:53.142Z,98.71
2018-06-12T01:23:53.108Z,99.57
2018-06-12T01:24:53.158Z,99.14
2018-06-12T01:25:53.044Z,99.24
2018-06-12T01:26:57.547Z,99.57
2018-06-12T01:27:53.013Z,99.62
2018-06-12T01:28:53.982Z,99.24
2018-06-12T01:29:52.922Z,99.52
2018-06-12T01:30:58.642Z,99.57
2018-06-12T01:31:52.851Z,99.52
2018-06-12T01:32:53.897Z,99.33
2018-06-12T01:33:52.833Z,98.66
2018-06-12T01:34:53.907Z,98.28
2018-06-12T01:35:52.768Z,98.66
2018-06-12T01:36:52.873Z,98.95
2018-06-12T01:37:52.744Z,98.47
2018-06-12T01:39:03.562Z,97.71
2018-06-12T01:39:52.669Z,97.52
2018-06-12T01:40:52.731Z,97.80
2018-06-12T01:41:52.626Z,97.71
2018-06-12T01:42:53.682Z,97.52
2018-06-12T01:43:52.595Z,98.14
2018-06-12T01:44:57.587Z,98.18
2018-06-12T01:45:52.546Z,98.43
2018-06-12T01:46:52.586Z,97.75
2018-06-12T01:47:52.504Z,97.95
2018-06-12T01:51:07.564Z,97.95
2018-06-12T01:52:07.519Z,98.71
2018-06-12T01:53:08.576Z,98.71
2018-06-12T01:54:07.458Z,98.61
2018-06-12T01:55:07.489Z,98.38
2018-06-12T01:56:07.443Z,98.75
2018-06-12T01:57:12.436Z,98.61
2018-06-12T01:58:07.362Z,98.33
2018-06-12T01:59:07.414Z,98.52
2018-06-12T02:00:07.335Z,98.81
2018-06-12T02:01:07.452Z,98.43
2018-06-12T02:02:07.304Z,98.33
2018-06-12T02:03:07.344Z,96.99
2018-06-12T02:04:07.250Z,96.70
2018-06-12T02:05:09.291Z,96.99
2018-06-12T02:06:07.170Z,97.18
2018-06-12T02:07:09.274Z,97.08
2018-06-12T02:08:07.264Z,96.70
2018-06-12T02:09:09.191Z,96.89
2018-06-12T02:10:07.106Z,96.51
2018-06-12T02:11:11.907Z,96.32
2018-06-12T02:12:07.060Z,96.89
2018-06-12T02:13:09.022Z,96.56
2018-06-12T02:14:07.055Z,96.61
2018-06-12T05:14:14.495Z,89.15
2018-06-12T05:15:14.424Z,89.43
2018-06-12T05:16:14.483Z,90.10
2018-06-12T05:17:14.362Z,89.15
2018-06-12T05:18:14.598Z,88.67
2018-06-12T05:19:14.423Z,88.76
2018-06-12T05:20:14.271Z,88.57
2018-06-12T05:21:14.305Z,89.43
2018-06-12T05:23:00.134Z,88.76
2018-06-12T05:24:00.005Z,88.29
2018-06-12T05:25:00.009Z,88.29
2018-06-12T05:25:59.986Z,88.95
2018-06-12T05:26:59.938Z,88.86
2018-06-12T05:28:00.006Z,88.38
2018-06-12T05:28:59.888Z,88.76
2018-06-12T05:29:59.900Z,88.86
2018-06-12T05:31:00.082Z,87.81
2018-06-12T07:04:03.588Z,80.18
2018-06-12T07:05:00.447Z,80.66
2018-06-12T07:06:00.163Z,81.52
2018-06-12T07:07:00.133Z,80.76
2018-06-12T07:08:00.662Z,81.04
2018-06-12T07:09:00.452Z,81.52
2018-06-12T07:10:00.086Z,81.52
2018-06-12T07:11:02.236Z,81.33
2018-06-12T07:12:00.140Z,79.80
2018-06-12T07:13:03.500Z,79.89
2018-06-12T07:17:04.768Z,80.37
2018-06-12T07:18:17.342Z,80.27
2018-06-12T07:19:04.376Z,79.41
2018-06-12T07:20:10.431Z,79.22
2018-06-12T07:21:04.597Z,79.89
2018-06-12T07:22:05.362Z,79.51
2018-06-12T07:23:04.405Z,79.70
2018-06-12T07:24:14.794Z,79.99
2018-06-12T07:25:04.210Z,80.18
2018-06-12T07:26:04.301Z,79.51
2018-06-12T07:27:04.150Z,79.89
2018-06-12T07:28:04.210Z,79.89
2018-06-12T07:29:04.104Z,79.99
2018-06-12T07:30:04.154Z,79.32
2018-06-12T07:31:52.312Z,79.70
2018-06-12T07:32:50.893Z,79.70
2018-06-12T07:33:52.182Z,80.08
2018-06-12T07:34:50.064Z,79.51
2018-06-12T07:35:50.139Z,79.51
2018-06-12T07:36:50.025Z,79.41
2018-06-12T07:37:51.105Z,79.03
2018-06-12T07:38:49.960Z,78.93
2018-06-12T07:39:50.031Z,79.32
2018-06-12T07:40:49.962Z,78.74
2018-06-12T07:41:51.051Z,78.40
2018-06-12T07:42:49.901Z,78.02
2018-06-12T07:43:54.578Z,77.92
2018-06-12T07:44:49.850Z,76.67
2018-06-12T07:45:49.821Z,76.39
2018-06-12T07:46:54.643Z,77.15
2018-06-12T07:47:49.769Z,77.06
2018-06-12T07:48:49.773Z,77.15
2018-06-12T07:49:49.714Z,76.39
2018-06-12T07:50:49.687Z,76.23
2018-06-12T07:51:49.703Z,75.85
2018-06-12T07:52:49.628Z,76.04
2018-06-12T07:53:49.724Z,75.31
2018-06-12T07:55:57.187Z,74.89
2018-06-12T07:56:57.146Z,74.79
2018-06-12T07:57:57.207Z,75.08
2018-06-12T07:58:57.009Z,74.79
2018-06-12T08:00:30.596Z,74.69
2018-06-12T08:00:57.005Z,75.40
2018-06-12T08:48:35.959Z,71.41
2018-06-12T08:57:37.118Z,68.85
2018-06-12T08:58:36.869Z,68.47
2018-06-12T08:59:36.778Z,67.70
2018-06-12T09:00:36.758Z,66.97
2018-06-12T09:01:36.773Z,67.80
2018-06-12T09:02:36.769Z,68.21
2018-06-12T09:03:36.779Z,67.93
2018-06-12T09:04:36.631Z,66.87
2018-06-12T09:05:37.698Z,67.07
2018-06-12T09:06:36.560Z,67.07
2018-06-12T09:07:36.551Z,66.77
2018-06-12T09:08:36.532Z,68.21
2018-06-12T09:09:36.532Z,67.13
2018-06-12T09:10:36.473Z,67.99
2018-06-12T09:11:36.440Z,68.08
2018-06-12T09:12:36.419Z,68.08
2018-06-12T09:13:37.451Z,69.72
2018-06-12T09:14:36.384Z,68.66
2018-06-12T09:15:36.349Z,68.95
2018-06-12T09:16:37.375Z,69.62
2018-06-12T09:17:36.312Z,69.05
2018-06-12T09:18:36.314Z,68.76
2018-06-12T09:19:36.382Z,69.62
2018-06-12T11:00:44.906Z,66.71
2018-06-12T11:16:45.220Z,65.69
2018-06-12T11:17:47.265Z,64.25
2018-06-12T11:18:45.097Z,63.67
2018-06-12T11:20:50.495Z,62.80
2018-06-12T11:21:46.008Z,63.57
2018-06-12T11:22:44.917Z,62.90
2018-06-12T11:23:46.038Z,63.18
2018-06-12T11:24:44.871Z,62.80
2018-06-12T11:25:45.896Z,62.90
2018-06-12T11:26:44.847Z,62.61
2018-06-12T11:27:45.011Z,64.43
2018-06-12T11:33:09.571Z,62.90
2018-06-12T11:34:04.191Z,63.67
2018-06-12T11:35:04.132Z,63.09
2018-06-12T11:36:05.297Z,63.28
2018-06-12T11:37:04.093Z,63.28
2018-06-12T11:42:14.091Z,62.80
2018-06-12T11:43:03.823Z,63.28
2018-06-12T11:45:35.656Z,64.05
2018-06-12T11:47:36.546Z,63.57
2018-06-12T11:48:27.000Z,64.43
2018-06-12T11:49:26.643Z,64.53
2018-06-12T11:54:26.473Z,64.28
2018-06-12T11:55:38.942Z,63.76
2018-06-12T11:56:26.681Z,63.60
2018-06-12T12:01:23.380Z,62.93
2018-06-12T12:02:20.201Z,62.09
2018-06-12T12:03:22.021Z,62.54
2018-06-12T12:05:23.565Z,63.57
2018-06-12T12:07:25.792Z,64.25
2018-06-12T12:08:19.803Z,64.05
2018-06-12T12:09:20.787Z,64.53
2018-06-12T12:10:19.765Z,63.95
2018-06-12T13:22:49.510Z,70.97
2018-06-12T13:24:49.415Z,70.58
2018-06-12T13:25:41.271Z,70.68
2018-06-12T13:27:05.445Z,70.29
2018-06-12T13:29:40.662Z,71.06
2018-06-12T13:31:12.314Z,70.78
2018-06-12T13:31:40.563Z,71.16
2018-06-12T13:34:18.863Z,71.25
2018-06-12T13:37:12.721Z,70.26
2018-06-12T13:38:12.696Z,70.97
2018-06-12T13:41:46.849Z,69.59
2018-06-12T13:43:45.535Z,69.78
2018-06-12T13:44:52.098Z,70.17
2018-06-12T13:45:45.468Z,70.55
2018-06-12T13:46:47.489Z,70.64
2018-06-12T13:47:45.422Z,71.51
2018-06-12T14:02:25.488Z,70.97
2018-06-12T14:03:26.049Z,71.06
2018-06-12T14:04:24.444Z,71.45
2018-06-12T14:05:19.098Z,71.35
2018-06-12T14:06:19.074Z,71.25
2018-06-12T14:07:21.026Z,70.78
2018-06-12T14:08:19.358Z,70.87
2018-06-12T14:09:19.803Z,71.16
2018-06-12T14:16:12.312Z,71.10
2018-06-12T14:17:02.629Z,70.33
2018-06-12T14:18:02.616Z,69.95
2018-06-12T14:19:02.529Z,69.66
2018-06-12T14:20:03.627Z,69.66
2018-06-12T14:21:02.421Z,69.56
2018-06-12T14:22:02.499Z,69.37
2018-06-12T14:23:02.398Z,69.75
2018-06-12T14:24:02.610Z,69.85
2018-06-12T14:25:02.345Z,69.56
2018-06-12T14:26:48.457Z,68.70
2018-06-12T14:27:49.533Z,68.63
2018-06-12T14:28:48.370Z,68.63
2018-06-12T14:29:51.014Z,68.54
2018-06-12T14:30:48.234Z,67.71
2018-06-12T14:31:48.348Z,66.36
2018-06-12T14:32:48.312Z,66.94
2018-06-12T14:34:34.034Z,67.03
2018-06-12T14:35:36.618Z,66.55
2018-06-12T14:37:48.899Z,67.13
2018-06-12T14:38:46.498Z,66.55
2018-06-12T14:39:46.755Z,66.55
2018-06-12T14:53:14.879Z,69.21
2018-06-12T14:54:11.864Z,69.06
2018-06-12T14:55:10.961Z,68.96
2018-06-12T14:56:05.149Z,68.67
2018-06-12T14:57:17.506Z,68.48
2018-06-12T14:58:04.651Z,68.57
2018-06-12T14:59:15.743Z,68.48
2018-06-12T15:00:04.577Z,67.99
2018-06-12T15:01:04.679Z,69.06
2018-06-12T15:02:04.521Z,68.63
2018-06-12T15:11:32.456Z,70.62
2018-06-12T15:12:33.546Z,70.33
2018-06-12T15:13:27.621Z,70.14
2018-06-12T15:14:27.422Z,70.43
2018-06-12T15:17:27.281Z,71.19
2018-06-12T15:18:29.358Z,71.48
2018-06-12T15:24:33.129Z,69.60
2018-06-12T15:25:34.296Z,70.46
2018-06-12T15:26:33.236Z,69.98
2018-06-12T15:27:33.159Z,68.92
2018-06-12T15:28:33.288Z,69.02
2018-06-12T15:29:32.962Z,68.83
2018-06-12T15:33:30.065Z,68.67
2018-06-12T15:34:29.621Z,68.67
2018-06-12T15:35:29.640Z,67.99
2018-06-12T15:36:29.614Z,67.99
2018-06-12T15:37:29.791Z,66.94
2018-06-12T15:38:29.466Z,66.55
2018-06-12T15:39:29.363Z,66.94
2018-06-12T15:47:15.805Z,66.27
2018-06-12T15:48:11.702Z,66.65
2018-06-12T15:49:18.238Z,66.46
2018-06-12T17:04:52.504Z,72.12
2018-06-12T17:07:16.644Z,71.83
2018-06-12T17:07:17.281Z,72.22
2018-06-12T17:08:18.138Z,72.22
2018-06-12T17:40:24.277Z,74.83
2018-06-12T17:41:30.018Z,75.25
2018-06-12T17:42:17.120Z,75.12
2018-06-12T17:43:27.879Z,75.21
2018-06-12T17:44:16.572Z,75.31
2018-06-12T19:39:57.758Z,84.39
2018-06-12T19:41:13.265Z,84.58
2018-06-12T19:41:57.324Z,84.78
2018-06-12T19:42:57.212Z,84.49
2018-06-12T19:44:57.179Z,84.78
2018-06-12T19:45:56.956Z,83.92
2018-06-12T19:47:02.587Z,84.68
